createdAt,value
2024-05-09T00:00:18.487Z,95159.00
2024-05-09T00:01:14.606Z,95157.00
2024-05-09T00:02:13.555Z,95157.00
2024-05-09T00:03:13.727Z,95157.00
2024-05-09T00:04:13.582Z,95158.00
2024-05-09T00:05:13.744Z,95159.00
2024-05-09T00:06:13.698Z,95158.00
2024-05-09T00:07:13.572Z,95155.00
2024-05-09T00:08:13.604Z,95158.00
2024-05-09T00:09:13.544Z,95156.00
2024-05-09T00:10:22.370Z,95157.00
2024-05-09T00:11:14.611Z,95157.00
2024-05-09T00:12:13.612Z,95155.00
2024-05-09T00:13:13.586Z,95157.00
2024-05-09T00:14:13.570Z,95156.00
2024-05-09T00:15:13.563Z,95156.00
2024-05-09T00:16:13.554Z,95157.00
2024-05-09T00:17:13.641Z,95157.00
2024-05-09T00:18:13.761Z,95155.00
2024-05-09T00:19:13.726Z,95154.00
2024-05-09T00:20:20.184Z,95154.00
2024-05-09T00:21:14.619Z,95151.00
2024-05-09T00:22:13.606Z,95154.00
2024-05-09T00:23:14.065Z,95152.00
2024-05-09T00:24:13.591Z,95153.00
2024-05-09T00:25:13.585Z,95153.00
2024-05-09T00:26:13.626Z,95153.00
2024-05-09T00:27:13.619Z,95154.00
2024-05-09T00:28:13.606Z,95150.00
2024-05-09T00:29:13.705Z,95153.00
2024-05-09T00:30:21.015Z,95153.00
2024-05-09T00:31:14.580Z,95152.00
2024-05-09T00:32:13.734Z,95150.00
2024-05-09T00:33:13.838Z,95151.00
2024-05-09T00:34:13.689Z,95152.00
2024-05-09T00:35:13.630Z,95152.00
2024-05-09T00:36:13.600Z,95148.00
2024-05-09T00:37:13.616Z,95150.00
2024-05-09T00:38:13.651Z,95147.00
2024-05-09T00:39:13.597Z,95146.00
2024-05-09T00:40:18.768Z,95143.00
2024-05-09T00:41:16.335Z,95145.00
2024-05-09T00:42:13.633Z,95142.00
2024-05-09T00:43:14.813Z,95139.00
2024-05-09T00:44:13.672Z,95142.00
2024-05-09T00:45:13.606Z,95140.00
2024-05-09T00:46:13.606Z,95139.00
2024-05-09T00:47:13.763Z,95140.00
2024-05-09T00:48:16.191Z,95140.00
2024-05-09T00:49:14.658Z,95140.00
2024-05-09T00:50:19.267Z,95139.00
2024-05-09T00:51:14.785Z,95138.00
2024-05-09T00:52:13.683Z,95137.00
2024-05-09T00:53:13.687Z,95135.00
2024-05-09T00:54:13.613Z,95134.00
2024-05-09T00:55:13.617Z,95130.00
2024-05-09T00:56:13.656Z,95131.00
2024-05-09T00:57:13.644Z,95130.00
2024-05-09T00:58:13.640Z,95129.00
2024-05-09T00:59:13.658Z,95127.00
2024-05-09T01:00:22.612Z,95127.00
2024-05-09T01:01:14.673Z,95129.00
2024-05-09T01:02:13.714Z,95126.00
2024-05-09T01:03:14.512Z,95128.00
2024-05-09T01:04:13.670Z,95129.00
2024-05-09T01:05:13.722Z,95127.00
2024-05-09T01:06:13.634Z,95127.00
2024-05-09T01:07:13.671Z,95126.00
2024-05-09T01:08:13.719Z,95125.00
2024-05-09T01:09:13.645Z,95122.00
2024-05-09T01:10:20.852Z,95123.00
2024-05-09T01:11:14.729Z,95122.00
2024-05-09T01:12:13.919Z,95120.00
2024-05-09T01:13:13.693Z,95119.00
2024-05-09T01:14:13.719Z,95117.00
2024-05-09T01:15:13.649Z,95117.00
2024-05-09T01:16:13.649Z,95115.00
2024-05-09T01:17:13.760Z,95119.00
2024-05-09T01:18:14.251Z,95119.00
2024-05-09T01:19:13.833Z,95118.00
2024-05-09T01:21:14.190Z,95119.00
2024-05-09T01:22:13.934Z,95117.00
2024-05-09T01:23:15.672Z,95116.00
2024-05-09T01:24:14.154Z,95117.00
2024-05-09T01:25:14.185Z,95116.00
2024-05-09T01:26:14.318Z,95116.00
2024-05-09T01:27:14.323Z,95117.00
2024-05-09T01:28:14.313Z,95116.00
2024-05-09T01:29:14.394Z,95116.00
2024-05-09T01:31:14.418Z,95119.00
2024-05-09T01:32:14.594Z,95116.00
2024-05-09T01:33:14.823Z,95118.00
2024-05-09T01:34:14.537Z,95117.00
2024-05-09T01:35:14.589Z,95118.00
2024-05-09T01:36:14.614Z,95119.00
2024-05-09T01:37:14.658Z,95118.00
2024-05-09T01:38:14.729Z,95119.00
2024-05-09T01:39:14.688Z,95120.00
2024-05-09T01:40:18.671Z,95118.00
2024-05-09T01:41:15.759Z,95118.00
2024-05-09T01:42:14.766Z,95122.00
2024-05-09T01:43:14.742Z,95121.00
2024-05-09T01:44:14.781Z,95122.00
2024-05-09T01:45:14.745Z,95120.00
2024-05-09T01:46:14.761Z,95120.00
2024-05-09T01:47:14.890Z,95121.00
2024-05-09T01:48:14.958Z,95121.00
2024-05-09T01:49:14.852Z,95121.00
2024-05-09T01:51:14.855Z,95120.00
2024-05-09T01:52:14.758Z,95122.00
2024-05-09T01:53:15.361Z,95120.00
2024-05-09T01:54:14.754Z,95119.00
2024-05-09T01:55:14.754Z,95119.00
2024-05-09T01:56:14.941Z,95120.00
2024-05-09T01:57:14.786Z,95119.00
2024-05-09T01:58:14.789Z,95120.00
2024-05-09T01:59:14.817Z,95121.00
2024-05-09T02:01:14.786Z,95118.00
2024-05-09T02:02:15.038Z,95118.00
2024-05-09T02:03:17.040Z,95117.00
2024-05-09T02:04:15.017Z,95117.00
2024-05-09T02:05:14.970Z,95117.00
2024-05-09T02:06:14.925Z,95117.00
2024-05-09T02:07:14.861Z,95117.00
2024-05-09T02:08:14.971Z,95115.00
2024-05-09T02:09:14.849Z,95116.00
2024-05-09T02:10:20.337Z,95115.00
2024-05-09T02:11:15.927Z,95115.00
2024-05-09T02:12:15.071Z,95115.00
2024-05-09T02:13:14.895Z,95113.00
2024-05-09T02:14:14.917Z,95114.00
2024-05-09T02:15:14.856Z,95112.00
2024-05-09T02:16:14.857Z,95112.00
2024-05-09T02:17:14.989Z,95107.00
2024-05-09T02:18:15.059Z,95106.00
2024-05-09T02:19:15.095Z,95107.00
2024-05-09T02:20:22.438Z,95103.00
2024-05-09T02:21:15.946Z,95106.00
2024-05-09T02:22:14.882Z,95107.00
2024-05-09T02:23:14.904Z,95105.00
2024-05-09T02:24:14.852Z,95103.00
2024-05-09T02:25:14.862Z,95105.00
2024-05-09T02:26:14.929Z,95102.00
2024-05-09T02:27:14.894Z,95105.00
2024-05-09T02:28:14.885Z,95105.00
2024-05-09T02:29:15.056Z,95106.00
2024-05-09T02:30:22.706Z,95103.00
2024-05-09T02:31:15.887Z,95106.00
2024-05-09T02:32:14.947Z,95105.00
2024-05-09T02:33:15.178Z,95104.00
2024-05-09T02:34:14.997Z,95103.00
2024-05-09T02:35:14.907Z,95105.00
2024-05-09T02:36:14.890Z,95104.00
2024-05-09T02:37:14.877Z,95104.00
2024-05-09T02:38:14.952Z,95102.00
2024-05-09T02:39:14.883Z,95102.00
2024-05-09T02:40:21.451Z,95102.00
2024-05-09T02:41:15.993Z,95102.00
2024-05-09T02:42:14.913Z,95103.00
2024-05-09T02:43:14.893Z,95103.00
2024-05-09T02:44:14.956Z,95103.00
2024-05-09T02:45:14.890Z,95102.00
2024-05-09T02:46:14.918Z,95101.00
2024-05-09T02:47:15.014Z,95103.00
2024-05-09T02:48:15.181Z,95106.00
2024-05-09T02:49:14.988Z,95108.00
2024-05-09T02:50:19.419Z,95108.00
2024-05-09T02:51:16.050Z,95109.00
2024-05-09T02:52:14.940Z,95108.00
2024-05-09T02:53:15.094Z,95107.00
2024-05-09T02:54:14.917Z,95107.00
2024-05-09T02:55:14.930Z,95110.00
2024-05-09T02:56:15.039Z,95110.00
2024-05-09T02:57:14.940Z,95109.00
2024-05-09T02:58:14.921Z,95107.00
2024-05-09T02:59:14.962Z,95106.00
2024-05-09T03:00:19.112Z,95106.00
2024-05-09T03:01:15.938Z,95104.00
2024-05-09T03:02:14.998Z,95104.00
2024-05-09T03:03:15.841Z,95104.00
2024-05-09T03:04:14.971Z,95102.00
2024-05-09T03:05:15.003Z,95103.00
2024-05-09T03:06:14.955Z,95102.00
2024-05-09T03:07:14.966Z,95101.00
2024-05-09T03:08:15.207Z,95104.00
2024-05-09T03:09:14.966Z,95103.00
2024-05-09T03:10:22.196Z,95103.00
2024-05-09T03:11:16.085Z,95101.00
2024-05-09T03:12:15.109Z,95099.00
2024-05-09T03:13:16.198Z,95102.00
2024-05-09T03:14:15.030Z,95101.00
2024-05-09T03:15:14.964Z,95101.00
2024-05-09T03:16:14.961Z,95102.00
2024-05-09T03:17:15.059Z,95102.00
2024-05-09T03:18:15.134Z,95100.00
2024-05-09T03:19:15.069Z,95101.00
2024-05-09T03:20:20.687Z,95099.00
2024-05-09T03:21:16.041Z,95101.00
2024-05-09T03:22:15.010Z,95100.00
2024-05-09T03:23:15.021Z,95102.00
2024-05-09T03:24:14.989Z,95099.00
2024-05-09T03:25:14.982Z,95102.00
2024-05-09T03:26:15.010Z,95102.00
2024-05-09T03:27:15.016Z,95101.00
2024-05-09T03:28:14.999Z,95103.00
2024-05-09T03:29:15.156Z,95104.00
2024-05-09T03:31:14.992Z,95105.00
2024-05-09T03:32:15.120Z,95103.00
2024-05-09T03:33:15.925Z,95104.00
2024-05-09T03:34:15.019Z,95104.00
2024-05-09T03:35:15.124Z,95105.00
2024-05-09T03:36:14.999Z,95109.00
2024-05-09T03:37:15.047Z,95109.00
2024-05-09T03:38:15.210Z,95112.00
2024-05-09T03:39:15.032Z,95112.00
2024-05-09T03:40:20.861Z,95113.00
2024-05-09T03:41:16.081Z,95113.00
2024-05-09T03:42:15.050Z,95111.00
2024-05-09T03:43:15.033Z,95113.00
2024-05-09T03:44:15.076Z,95114.00
2024-05-09T03:45:15.026Z,95115.00
2024-05-09T03:46:15.036Z,95115.00
2024-05-09T03:47:15.124Z,95116.00
2024-05-09T03:48:15.262Z,95115.00
2024-05-09T03:49:15.187Z,95114.00
2024-05-09T03:50:18.479Z,95114.00
2024-05-09T03:51:16.097Z,95113.00
2024-05-09T03:52:15.076Z,95113.00
2024-05-09T03:53:15.190Z,95114.00
2024-05-09T03:54:15.053Z,95114.00
2024-05-09T03:55:15.061Z,95115.00
2024-05-09T03:56:15.077Z,95115.00
2024-05-09T03:57:15.130Z,95117.00
2024-05-09T03:58:15.102Z,95117.00
2024-05-09T03:59:15.207Z,95118.00
2024-05-09T04:00:21.973Z,95121.00
2024-05-09T04:01:16.110Z,95123.00
2024-05-09T04:02:15.260Z,95124.00
2024-05-09T04:03:15.456Z,95126.00
2024-05-09T04:04:15.088Z,95127.00
2024-05-09T04:05:15.088Z,95128.00
2024-05-09T04:06:15.274Z,95130.00
2024-05-09T04:07:15.103Z,95132.00
2024-05-09T04:08:15.643Z,95132.00
2024-05-09T04:09:15.071Z,95129.00
2024-05-09T04:10:23.711Z,95131.00
2024-05-09T04:11:16.187Z,95131.00
2024-05-09T04:12:15.228Z,95130.00
2024-05-09T04:13:15.093Z,95131.00
2024-05-09T04:14:15.131Z,95132.00
2024-05-09T04:15:15.094Z,95131.00
2024-05-09T04:16:15.113Z,95131.00
2024-05-09T04:17:15.156Z,95132.00
2024-05-09T04:18:15.218Z,95133.00
2024-05-09T04:19:15.237Z,95134.00
2024-05-09T04:20:24.599Z,95137.00
2024-05-09T04:21:16.171Z,95137.00
2024-05-09T04:22:15.146Z,95135.00
2024-05-09T04:23:15.313Z,95138.00
2024-05-09T04:24:15.106Z,95139.00
2024-05-09T04:25:15.100Z,95140.00
2024-05-09T04:26:15.153Z,95139.00
2024-05-09T04:27:15.160Z,95140.00
2024-05-09T04:28:15.118Z,95139.00
2024-05-09T04:29:15.192Z,95140.00
2024-05-09T04:30:21.835Z,95140.00
2024-05-09T04:31:16.133Z,95141.00
2024-05-09T04:32:15.180Z,95138.00
2024-05-09T04:33:15.655Z,95139.00
2024-05-09T04:34:15.232Z,95139.00
2024-05-09T04:35:15.200Z,95140.00
2024-05-09T04:36:15.134Z,95139.00
2024-05-09T04:37:15.146Z,95139.00
2024-05-09T04:38:22.426Z,95141.00
2024-05-09T04:39:22.424Z,95141.00
2024-05-09T04:40:28.609Z,95141.00
2024-05-09T04:41:23.573Z,95143.00
2024-05-09T04:42:22.434Z,95142.00
2024-05-09T04:43:22.406Z,95141.00
2024-05-09T04:44:22.465Z,95143.00
2024-05-09T04:45:22.411Z,95140.00
2024-05-09T04:46:22.413Z,95141.00
2024-05-09T04:47:22.531Z,95140.00
2024-05-09T04:48:22.571Z,95139.00
2024-05-09T04:49:22.559Z,95139.00
2024-05-09T04:50:30.137Z,95141.00
2024-05-09T04:51:23.444Z,95140.00
2024-05-09T04:52:22.461Z,95139.00
2024-05-09T04:53:22.494Z,95141.00
2024-05-09T04:54:30.474Z,95141.00
2024-05-09T04:55:23.434Z,95141.00
2024-05-09T04:56:22.463Z,95142.00
2024-05-09T04:57:22.508Z,95141.00
2024-05-09T04:58:22.472Z,95142.00
2024-05-09T04:59:22.475Z,95140.00
2024-05-09T05:00:31.783Z,95141.00
2024-05-09T05:01:23.453Z,95142.00
2024-05-09T05:02:22.566Z,95144.00
2024-05-09T05:03:22.777Z,95144.00
2024-05-09T05:04:22.532Z,95144.00
2024-05-09T05:05:22.481Z,95147.00
2024-05-09T05:06:22.456Z,95147.00
2024-05-09T05:07:22.486Z,95146.00
2024-05-09T05:08:22.495Z,95147.00
2024-05-09T05:09:22.462Z,95149.00
2024-05-09T05:10:29.732Z,95150.00
2024-05-09T05:11:23.580Z,95152.00
2024-05-09T05:12:22.587Z,95152.00
2024-05-09T05:13:23.618Z,95151.00
2024-05-09T05:14:22.534Z,95147.00
2024-05-09T05:15:22.472Z,95149.00
2024-05-09T05:16:22.476Z,95147.00
2024-05-09T05:17:22.574Z,95147.00
2024-05-09T05:18:22.611Z,95148.00
2024-05-09T05:19:22.542Z,95147.00
2024-05-09T05:20:30.390Z,95146.00
2024-05-09T05:21:23.542Z,95146.00
2024-05-09T05:22:22.504Z,95146.00
2024-05-09T05:23:22.692Z,95144.00
2024-05-09T05:24:22.480Z,95146.00
2024-05-09T05:25:22.480Z,95147.00
2024-05-09T05:26:22.534Z,95146.00
2024-05-09T05:27:22.520Z,95147.00
2024-05-09T05:28:22.551Z,95149.00
2024-05-09T05:29:22.566Z,95146.00
2024-05-09T05:30:28.956Z,95144.00
2024-05-09T05:31:23.568Z,95147.00
2024-05-09T05:32:22.719Z,95148.00
2024-05-09T05:33:23.181Z,95149.00
2024-05-09T05:34:22.506Z,95149.00
2024-05-09T05:35:22.581Z,95151.00
2024-05-09T05:36:22.514Z,95155.00
2024-05-09T05:37:22.548Z,95154.00
2024-05-09T05:38:26.083Z,95155.00
2024-05-09T05:39:23.538Z,95160.00
2024-05-09T05:40:32.014Z,95159.00
2024-05-09T05:41:23.546Z,95158.00
2024-05-09T05:42:22.570Z,95156.00
2024-05-09T05:43:22.539Z,95161.00
2024-05-09T05:44:22.587Z,95161.00
2024-05-09T05:45:22.538Z,95162.00
2024-05-09T05:46:22.556Z,95162.00
2024-05-09T05:47:22.625Z,95166.00
2024-05-09T05:48:22.711Z,95163.00
2024-05-09T05:49:22.836Z,95162.00
2024-05-09T05:50:28.007Z,95160.00
2024-05-09T05:51:23.566Z,95163.00
2024-05-09T05:52:22.559Z,95161.00
2024-05-09T05:53:22.632Z,95158.00
2024-05-09T05:54:22.591Z,95158.00
2024-05-09T05:55:22.563Z,95158.00
2024-05-09T05:56:22.582Z,95159.00
2024-05-09T05:57:22.561Z,95158.00
2024-05-09T05:58:22.595Z,95158.00
2024-05-09T05:59:22.698Z,95158.00
2024-05-09T06:00:29.800Z,95158.00
2024-05-09T06:01:23.619Z,95161.00
2024-05-09T06:02:22.629Z,95158.00
2024-05-09T06:03:22.673Z,95158.00
2024-05-09T06:04:22.642Z,95156.00
2024-05-09T06:05:23.432Z,95158.00
2024-05-09T06:06:22.604Z,95157.00
2024-05-09T06:07:22.586Z,95156.00
2024-05-09T06:08:22.646Z,95157.00
2024-05-09T06:09:22.594Z,95155.00
2024-05-09T06:10:26.352Z,95155.00
2024-05-09T06:11:23.669Z,95155.00
2024-05-09T06:12:22.692Z,95153.00
2024-05-09T06:13:22.614Z,95155.00
2024-05-09T06:14:22.817Z,95154.00
2024-05-09T06:15:22.607Z,95150.00
2024-05-09T06:16:22.607Z,95150.00
2024-05-09T06:17:22.776Z,95149.00
2024-05-09T06:18:22.680Z,95148.00
2024-05-09T06:19:22.756Z,95147.00
2024-05-09T06:20:31.581Z,95149.00
2024-05-09T06:21:23.634Z,95146.00
2024-05-09T06:22:22.619Z,95148.00
2024-05-09T06:23:22.765Z,95147.00
2024-05-09T06:24:22.638Z,95146.00
2024-05-09T06:25:22.619Z,95144.00
2024-05-09T06:26:22.685Z,95144.00
2024-05-09T06:27:22.622Z,95142.00
2024-05-09T06:28:22.635Z,95142.00
2024-05-09T06:29:22.679Z,95140.00
2024-05-09T06:30:30.069Z,95139.00
2024-05-09T06:31:23.635Z,95140.00
2024-05-09T06:32:22.779Z,95139.00
2024-05-09T06:33:22.811Z,95139.00
2024-05-09T06:34:22.907Z,95139.00
2024-05-09T06:35:22.658Z,95137.00
2024-05-09T06:36:22.639Z,95137.00
2024-05-09T06:37:22.792Z,95137.00
2024-05-09T06:38:22.669Z,95136.00
2024-05-09T06:39:22.644Z,95137.00
2024-05-09T06:40:25.924Z,95135.00
2024-05-09T06:41:23.714Z,95136.00
2024-05-09T06:42:22.653Z,95136.00
2024-05-09T06:43:22.718Z,95137.00
2024-05-09T06:44:22.757Z,95136.00
2024-05-09T06:45:22.653Z,95139.00
2024-05-09T06:46:22.649Z,95138.00
2024-05-09T06:47:22.764Z,95139.00
2024-05-09T06:48:23.166Z,95140.00
2024-05-09T06:49:22.766Z,95141.00
2024-05-09T06:50:24.525Z,95141.00
2024-05-09T06:51:23.663Z,95144.00
2024-05-09T06:52:22.680Z,95144.00
2024-05-09T06:53:22.747Z,95144.00
2024-05-09T06:54:22.737Z,95144.00
2024-05-09T06:55:22.675Z,95145.00
2024-05-09T06:56:22.725Z,95144.00
2024-05-09T06:57:22.662Z,95144.00
2024-05-09T06:58:22.744Z,95143.00
2024-05-09T06:59:22.764Z,95143.00
2024-05-09T07:00:30.479Z,95142.00
2024-05-09T07:01:23.748Z,95145.00
2024-05-09T07:02:22.862Z,95145.00
2024-05-09T07:03:22.795Z,95146.00
2024-05-09T07:04:22.747Z,95147.00
2024-05-09T07:05:22.765Z,95146.00
2024-05-09T07:06:22.685Z,95147.00
2024-05-09T07:07:22.680Z,95148.00
2024-05-09T07:08:22.770Z,95145.00
2024-05-09T07:09:22.697Z,95147.00
2024-05-09T07:10:29.063Z,95148.00
2024-05-09T07:11:23.752Z,95147.00
2024-05-09T07:12:22.768Z,95145.00
2024-05-09T07:13:22.733Z,95146.00
2024-05-09T07:14:22.804Z,95146.00
2024-05-09T07:15:22.707Z,95143.00
2024-05-09T07:16:22.709Z,95144.00
2024-05-09T07:17:22.793Z,95143.00
2024-05-09T07:18:22.839Z,95142.00
2024-05-09T07:19:22.889Z,95141.00
2024-05-09T07:20:31.841Z,95140.00
2024-05-09T07:21:23.772Z,95141.00
2024-05-09T07:22:22.730Z,95139.00
2024-05-09T07:23:22.769Z,95140.00
2024-05-09T07:24:22.728Z,95137.00
2024-05-09T07:25:22.725Z,95138.00
2024-05-09T07:26:22.748Z,95136.00
2024-05-09T07:27:22.735Z,95134.00
2024-05-09T07:28:22.747Z,95132.00
2024-05-09T07:29:22.784Z,95133.00
2024-05-09T07:30:27.792Z,95131.00
2024-05-09T07:31:23.749Z,95131.00
2024-05-09T07:32:22.856Z,95132.00
2024-05-09T07:33:24.133Z,95132.00
2024-05-09T07:34:22.816Z,95130.00
2024-05-09T07:35:22.769Z,95133.00
2024-05-09T07:36:22.759Z,95132.00
2024-05-09T07:37:22.764Z,95133.00
2024-05-09T07:38:22.825Z,95132.00
2024-05-09T07:39:22.769Z,95129.00
2024-05-09T07:41:22.824Z,95127.00
2024-05-09T07:42:22.759Z,95127.00
2024-05-09T07:43:22.792Z,95127.00
2024-05-09T07:44:22.793Z,95129.00
2024-05-09T07:45:40.556Z,95124.00
2024-05-09T07:47:17.234Z,95124.00
2024-05-09T07:48:49.063Z,95124.00
2024-05-09T07:53:30.164Z,95122.00
2024-05-09T07:54:22.878Z,95122.00
2024-05-09T07:55:23.049Z,95121.00
2024-05-09T07:56:24.082Z,95119.00
2024-05-09T07:57:22.833Z,95118.00
2024-05-09T07:58:22.826Z,95119.00
2024-05-09T07:59:22.807Z,95115.00
2024-05-09T08:00:29.530Z,95115.00
2024-05-09T08:01:23.920Z,95114.00
2024-05-09T08:02:22.960Z,95113.00
2024-05-09T08:03:23.043Z,95110.00
2024-05-09T08:04:23.694Z,95109.00
2024-05-09T08:05:22.879Z,95112.00
2024-05-09T08:06:22.811Z,95111.00
2024-05-09T08:07:22.887Z,95110.00
2024-05-09T08:08:22.841Z,95110.00
2024-05-09T08:09:22.849Z,95110.00
2024-05-09T08:10:27.427Z,95108.00
2024-05-09T08:11:24.026Z,95108.00
2024-05-09T08:12:22.820Z,95109.00
2024-05-09T08:13:23.210Z,95108.00
2024-05-09T08:14:22.823Z,95109.00
2024-05-09T08:15:22.825Z,95106.00
2024-05-09T08:16:23.043Z,95106.00
2024-05-09T08:17:22.938Z,95107.00
2024-05-09T08:18:22.967Z,95105.00
2024-05-09T08:19:22.955Z,95105.00
2024-05-09T08:20:30.686Z,95105.00
2024-05-09T08:21:23.965Z,95103.00
2024-05-09T08:22:22.960Z,95102.00
2024-05-09T08:23:22.973Z,95102.00
2024-05-09T08:24:22.957Z,95102.00
2024-05-09T08:25:23.011Z,95101.00
2024-05-09T08:26:22.952Z,95100.00
2024-05-09T08:27:22.949Z,95101.00
2024-05-09T08:28:23.103Z,95100.00
2024-05-09T08:29:23.028Z,95098.00
2024-05-09T08:30:30.047Z,95097.00
2024-05-09T08:31:24.168Z,95098.00
2024-05-09T08:32:23.115Z,95096.00
2024-05-09T08:33:23.210Z,95096.00
2024-05-09T08:34:23.175Z,95095.00
2024-05-09T08:35:23.087Z,95093.00
2024-05-09T08:36:23.086Z,95093.00
2024-05-09T08:37:26.069Z,95095.00
2024-05-09T08:38:24.132Z,95092.00
2024-05-09T08:39:23.081Z,95093.00
2024-05-09T08:40:30.724Z,95089.00
2024-05-09T08:41:24.100Z,95092.00
2024-05-09T08:42:23.098Z,95093.00
2024-05-09T08:43:23.416Z,95092.00
2024-05-09T08:44:23.096Z,95092.00
2024-05-09T08:45:23.100Z,95091.00
2024-05-09T08:46:23.229Z,95090.00
2024-05-09T08:47:23.166Z,95090.00
2024-05-09T08:48:23.415Z,95092.00
2024-05-09T08:49:23.201Z,95089.00
2024-05-09T08:50:32.037Z,95090.00
2024-05-09T08:51:24.158Z,95091.00
2024-05-09T08:52:23.152Z,95092.00
2024-05-09T08:53:23.219Z,95090.00
2024-05-09T08:54:23.148Z,95088.00
2024-05-09T08:55:23.157Z,95093.00
2024-05-09T08:56:23.156Z,95092.00
2024-05-09T08:57:23.154Z,95090.00
2024-05-09T08:58:23.197Z,95091.00
2024-05-09T08:59:23.166Z,95090.00
2024-05-09T09:00:33.459Z,95089.00
2024-05-09T09:01:24.306Z,95090.00
2024-05-09T09:02:23.418Z,95089.00
2024-05-09T09:03:23.281Z,95087.00
2024-05-09T09:04:24.169Z,95084.00
2024-05-09T09:05:23.410Z,95084.00
2024-05-09T09:06:23.248Z,95083.00
2024-05-09T09:07:23.329Z,95081.00
2024-05-09T09:08:23.234Z,95078.00
2024-05-09T09:09:23.240Z,95081.00
2024-05-09T09:10:29.748Z,95079.00
2024-05-09T09:11:24.347Z,95078.00
2024-05-09T09:12:23.276Z,95076.00
2024-05-09T09:13:23.301Z,95076.00
2024-05-09T09:14:23.279Z,95076.00
2024-05-09T09:15:23.323Z,95075.00
2024-05-09T09:16:23.586Z,95074.00
2024-05-09T09:17:23.404Z,95075.00
2024-05-09T09:18:23.408Z,95076.00
2024-05-09T09:19:23.567Z,95074.00
2024-05-09T09:20:29.390Z,95077.00
2024-05-09T09:21:24.391Z,95076.00
2024-05-09T09:22:23.365Z,95076.00
2024-05-09T09:23:23.363Z,95073.00
2024-05-09T09:24:23.359Z,95075.00
2024-05-09T09:25:23.382Z,95074.00
2024-05-09T09:26:23.447Z,95070.00
2024-05-09T09:27:23.365Z,95070.00
2024-05-09T09:28:23.465Z,95066.00
2024-05-09T09:29:23.383Z,95067.00
2024-05-09T09:30:34.525Z,95067.00
2024-05-09T09:31:24.463Z,95065.00
2024-05-09T09:32:23.520Z,95066.00
2024-05-09T09:33:23.492Z,95063.00
2024-05-09T09:34:23.613Z,95063.00
2024-05-09T09:35:23.511Z,95062.00
2024-05-09T09:36:23.459Z,95060.00
2024-05-09T09:37:23.485Z,95058.00
2024-05-09T09:38:23.480Z,95053.00
2024-05-09T09:39:23.518Z,95056.00
2024-05-09T09:40:29.261Z,95053.00
2024-05-09T09:41:24.541Z,95056.00
2024-05-09T09:42:23.566Z,95051.00
2024-05-09T09:43:23.564Z,95052.00
2024-05-09T09:44:23.571Z,95051.00
2024-05-09T09:45:23.547Z,95049.00
2024-05-09T09:46:23.652Z,95046.00
2024-05-09T09:47:23.617Z,95044.00
2024-05-09T09:48:23.858Z,95042.00
2024-05-09T09:49:23.610Z,95041.00
2024-05-09T09:50:27.865Z,95041.00
2024-05-09T09:51:24.625Z,95037.00
2024-05-09T09:52:23.760Z,95034.00
2024-05-09T09:53:23.659Z,95038.00
2024-05-09T09:54:23.621Z,95035.00
2024-05-09T09:55:23.755Z,95035.00
2024-05-09T09:56:23.628Z,95032.00
2024-05-09T09:57:23.651Z,95033.00
2024-05-09T09:58:23.810Z,95032.00
2024-05-09T09:59:23.621Z,95029.00
2024-05-09T10:00:29.925Z,95029.00
2024-05-09T10:01:24.782Z,95025.00
2024-05-09T10:02:23.877Z,95023.00
2024-05-09T10:03:23.869Z,95024.00
2024-05-09T10:04:23.816Z,95024.00
2024-05-09T10:05:23.980Z,95020.00
2024-05-09T10:06:23.693Z,95021.00
2024-05-09T10:07:23.773Z,95022.00
2024-05-09T10:08:23.757Z,95019.00
2024-05-09T10:09:23.700Z,95016.00
2024-05-09T10:10:30.334Z,95017.00
2024-05-09T10:11:24.808Z,95012.00
2024-05-09T10:12:23.813Z,95015.00
2024-05-09T10:13:23.902Z,95014.00
2024-05-09T10:14:23.762Z,95007.00
2024-05-09T10:15:23.765Z,95008.00
2024-05-09T10:16:24.045Z,95007.00
2024-05-09T10:17:23.834Z,95008.00
2024-05-09T10:18:23.884Z,94999.00
2024-05-09T10:19:23.894Z,95000.00
2024-05-09T10:20:28.057Z,94997.00
2024-05-09T10:21:24.790Z,94994.00
2024-05-09T10:22:23.871Z,94992.00
2024-05-09T10:23:23.871Z,94992.00
2024-05-09T10:24:23.811Z,94992.00
2024-05-09T10:25:24.075Z,94990.00
2024-05-09T10:26:23.799Z,94991.00
2024-05-09T10:27:23.794Z,94990.00
2024-05-09T10:28:23.850Z,94988.00
2024-05-09T10:29:23.813Z,94985.00
2024-05-09T10:30:33.317Z,94988.00
2024-05-09T10:31:24.875Z,94988.00
2024-05-09T10:32:23.882Z,94987.00
2024-05-09T10:33:23.939Z,94986.00
2024-05-09T10:34:24.243Z,94986.00
2024-05-09T10:35:23.844Z,94985.00
2024-05-09T10:36:23.866Z,94981.00
2024-05-09T10:37:23.894Z,94979.00
2024-05-09T10:38:23.872Z,94978.00
2024-05-09T10:39:23.843Z,94975.00
2024-05-09T10:40:29.339Z,94973.00
2024-05-09T10:41:24.858Z,94974.00
2024-05-09T10:42:23.854Z,94969.00
2024-05-09T10:43:23.920Z,94971.00
2024-05-09T10:44:23.855Z,94969.00
2024-05-09T10:45:23.858Z,94967.00
2024-05-09T10:46:23.889Z,94964.00
2024-05-09T10:47:23.971Z,94961.00
2024-05-09T10:48:24.081Z,94964.00
2024-05-09T10:49:23.998Z,94964.00
2024-05-09T10:50:28.655Z,94963.00
2024-05-09T10:51:24.869Z,94962.00
2024-05-09T10:52:23.918Z,94958.00
2024-05-09T10:53:23.901Z,94960.00
2024-05-09T10:54:23.880Z,94956.00
2024-05-09T10:55:23.969Z,94955.00
2024-05-09T10:56:23.880Z,94953.00
2024-05-09T10:57:23.889Z,94954.00
2024-05-09T10:58:23.963Z,94958.00
2024-05-09T10:59:23.890Z,94959.00
2024-05-09T11:00:30.542Z,94958.00
2024-05-09T11:01:24.957Z,94957.00
2024-05-09T11:02:24.068Z,94951.00
2024-05-09T11:03:24.009Z,94954.00
2024-05-09T11:04:23.949Z,94954.00
2024-05-09T11:05:24.032Z,94951.00
2024-05-09T11:06:23.897Z,94949.00
2024-05-09T11:07:23.949Z,94948.00
2024-05-09T11:08:23.980Z,94946.00
2024-05-09T11:09:23.889Z,94949.00
2024-05-09T11:10:27.614Z,94946.00
2024-05-09T11:11:24.900Z,94946.00
2024-05-09T11:12:24.916Z,94945.00
2024-05-09T11:13:23.908Z,94944.00
2024-05-09T11:14:23.905Z,94945.00
2024-05-09T11:15:23.920Z,94945.00
2024-05-09T11:16:24.019Z,94944.00
2024-05-09T11:17:24.040Z,94947.00
2024-05-09T11:18:25.100Z,94946.00
2024-05-09T11:19:24.034Z,94946.00
2024-05-09T11:20:29.506Z,94940.00
2024-05-09T11:21:25.033Z,94939.00
2024-05-09T11:22:24.008Z,94938.00
2024-05-09T11:23:23.926Z,94941.00
2024-05-09T11:24:23.945Z,94935.00
2024-05-09T11:25:23.966Z,94933.00
2024-05-09T11:26:23.923Z,94933.00
2024-05-09T11:27:23.937Z,94932.00
2024-05-09T11:28:24.036Z,94932.00
2024-05-09T11:29:23.967Z,94929.00
2024-05-09T11:30:29.943Z,94929.00
2024-05-09T11:31:25.223Z,94924.00
2024-05-09T11:32:23.979Z,94928.00
2024-05-09T11:33:24.055Z,94925.00
2024-05-09T11:34:24.053Z,94926.00
2024-05-09T11:35:23.959Z,94922.00
2024-05-09T11:36:23.940Z,94924.00
2024-05-09T11:37:23.966Z,94918.00
2024-05-09T11:38:23.938Z,94918.00
2024-05-09T11:39:23.944Z,94915.00
2024-05-09T11:40:26.041Z,94916.00
2024-05-09T11:41:23.966Z,94920.00
2024-05-09T11:42:23.948Z,94916.00
2024-05-09T11:43:24.018Z,94917.00
2024-05-09T11:44:23.963Z,94910.00
2024-05-09T11:45:23.950Z,94913.00
2024-05-09T11:46:24.080Z,94911.00
2024-05-09T11:47:24.072Z,94910.00
2024-05-09T11:48:24.149Z,94910.00
2024-05-09T11:49:26.913Z,94908.00
2024-05-09T11:50:29.934Z,94907.00
2024-05-09T11:51:24.964Z,94908.00
2024-05-09T11:52:24.012Z,94907.00
2024-05-09T11:53:23.989Z,94904.00
2024-05-09T11:54:23.984Z,94903.00
2024-05-09T11:55:27.540Z,94904.00